Pagina principală
METAR-TAF:

METAR-TAF

Aeroporturi :

Comitatul Stanton, Kansas, Statele Unite ale Americii

Latitudine: 37-35-07N, longitudine: 101-43-56W, elevație: 1013 m

Observații meteo curente

Raportul a fost făcut în urmă cu 3 ore și 8 de minute, la 18:35 UTC
Vânt 7 kt de la Nord/Nord-vest, variabil între Nord-vest și Nord-est
Temperatură 31°C
Umiditate 40%
Presiune 1018 hPa
Vizibilitate: 16.1 km
Cer senin

METAR: KJHN 221835Z AUTO 34007KT 310V050 10SM CLR 31/16 A3006 RMK AO2 T03100155

Ora: 16:43 (21:43 UTC)


TAF: lipsă

Observații și prognoze meteo pentru peste 4.000 de aeroporturi (rapoarte METAR și TAF).

Stațiile disponibile sunt reprezentate pe hartă prin puncte galbene și roșii.

Țineți indicatorul mouse-ului pe punctul dorit pentru a vedea denumirea stației.

Apoi, faceți clic pentru a vedea observațiile și prognozele meteorologice.

Pentru a schimba harta: Pentru mărire, faceți clic pe butoanele verzi cu cruce neagră; pentru micșorare, pe butonul verde cu o liniuță; pentru hărți învecinate, pe săgețile verzi.


METAR-TAF: